sensor_id;sensor_type;location;lat;lon;timestamp;temperature;humidity
3194;DHT22;1608;50.860;13.466;2022-12-07T00:00:19;8.00;99.90
3194;DHT22;1608;50.860;13.466;2022-12-07T00:02:45;7.90;99.90
3194;DHT22;1608;50.860;13.466;2022-12-07T00:05:12;7.80;99.90
3194;DHT22;1608;50.860;13.466;2022-12-07T00:07:39;7.60;99.90
3194;DHT22;1608;50.860;13.466;2022-12-07T00:10:08;7.60;99.90
3194;DHT22;1608;50.860;13.466;2022-12-07T00:12:34;7.40;99.90
3194;DHT22;1608;50.860;13.466;2022-12-07T00:15:02;7.50;99.90
3194;DHT22;1608;50.860;13.466;2022-12-07T00:17:28;7.60;99.90
3194;DHT22;1608;50.860;13.466;2022-12-07T00:19:55;7.70;99.90
3194;DHT22;1608;50.860;13.466;2022-12-07T00:22:22;7.60;99.90
3194;DHT22;1608;50.860;13.466;2022-12-07T00:24:49;7.60;99.90
3194;DHT22;1608;50.860;13.466;2022-12-07T00:27:17;7.30;99.90
3194;DHT22;1608;50.860;13.466;2022-12-07T00:29:44;7.00;99.90
3194;DHT22;1608;50.860;13.466;2022-12-07T00:32:11;6.90;99.90
3194;DHT22;1608;50.860;13.466;2022-12-07T00:34:37;6.80;99.90
3194;DHT22;1608;50.860;13.466;2022-12-07T00:37:04;6.40;99.90
3194;DHT22;1608;50.860;13.466;2022-12-07T00:39:31;6.10;99.90
3194;DHT22;1608;50.860;13.466;2022-12-07T00:41:58;5.90;99.90
3194;DHT22;1608;50.860;13.466;2022-12-07T00:44:26;5.70;99.90
3194;DHT22;1608;50.860;13.466;2022-12-07T00:46:53;5.70;99.90
3194;DHT22;1608;50.860;13.466;2022-12-07T00:49:21;6.00;99.90
3194;DHT22;1608;50.860;13.466;2022-12-07T00:51:48;6.10;99.90
3194;DHT22;1608;50.860;13.466;2022-12-07T00:54:15;6.10;99.90
3194;DHT22;1608;50.860;13.466;2022-12-07T00:56:42;6.00;99.90
3194;DHT22;1608;50.860;13.466;2022-12-07T00:59:12;5.70;99.90
3194;DHT22;1608;50.860;13.466;2022-12-07T01:01:41;5.70;99.90
3194;DHT22;1608;50.860;13.466;2022-12-07T01:04:08;5.60;99.90
3194;DHT22;1608;50.860;13.466;2022-12-07T01:06:35;5.50;99.90
3194;DHT22;1608;50.860;13.466;2022-12-07T01:09:03;5.40;99.90
3194;DHT22;1608;50.860;13.466;2022-12-07T01:11:30;5.30;99.90
3194;DHT22;1608;50.860;13.466;2022-12-07T01:13:58;5.30;99.90
3194;DHT22;1608;50.860;13.466;2022-12-07T01:16:27;5.30;99.90
3194;DHT22;1608;50.860;13.466;2022-12-07T01:18:57;5.20;99.90
3194;DHT22;1608;50.860;13.466;2022-12-07T01:21:26;5.20;99.90
3194;DHT22;1608;50.860;13.466;2022-12-07T01:23:53;5.20;99.90
3194;DHT22;1608;50.860;13.466;2022-12-07T01:26:21;5.20;99.90
3194;DHT22;1608;50.860;13.466;2022-12-07T01:28:49;5.10;99.90
3194;DHT22;1608;50.860;13.466;2022-12-07T01:31:17;5.10;99.90
3194;DHT22;1608;50.860;13.466;2022-12-07T01:33:45;5.10;99.90
3194;DHT22;1608;50.860;13.466;2022-12-07T01:36:16;5.10;99.90
3194;DHT22;1608;50.860;13.466;2022-12-07T01:38:43;5.20;99.90
3194;DHT22;1608;50.860;13.466;2022-12-07T01:41:11;5.10;99.90
3194;DHT22;1608;50.860;13.466;2022-12-07T01:44:10;5.10;99.90
3194;DHT22;1608;50.860;13.466;2022-12-07T01:46:37;5.10;99.90
3194;DHT22;1608;50.860;13.466;2022-12-07T01:49:05;5.10;99.90
3194;DHT22;1608;50.860;13.466;2022-12-07T01:51:34;5.10;99.90
3194;DHT22;1608;50.860;13.466;2022-12-07T01:54:04;5.10;99.90
3194;DHT22;1608;50.860;13.466;2022-12-07T01:56:32;5.00;99.90
3194;DHT22;1608;50.860;13.466;2022-12-07T01:59:00;5.00;99.90
3194;DHT22;1608;50.860;13.466;2022-12-07T02:01:27;4.90;99.90
3194;DHT22;1608;50.860;13.466;2022-12-07T02:03:54;5.00;99.90
3194;DHT22;1608;50.860;13.466;2022-12-07T02:06:25;4.90;99.90
3194;DHT22;1608;50.860;13.466;2022-12-07T02:08:53;4.90;99.90
3194;DHT22;1608;50.860;13.466;2022-12-07T02:11:21;4.90;99.90
3194;DHT22;1608;50.860;13.466;2022-12-07T02:13:48;5.00;99.90
3194;DHT22;1608;50.860;13.466;2022-12-07T02:16:27;5.00;99.90
3194;DHT22;1608;50.860;13.466;2022-12-07T02:19:04;5.00;99.90
3194;DHT22;1608;50.860;13.466;2022-12-07T02:21:42;5.10;99.90
3194;DHT22;1608;50.860;13.466;2022-12-07T02:24:20;5.00;99.90
3194;DHT22;1608;50.860;13.466;2022-12-07T02:27:26;5.10;99.90
3194;DHT22;1608;50.860;13.466;2022-12-07T02:32:26;4.90;99.90
3194;DHT22;1608;50.860;13.466;2022-12-07T02:34:57;5.00;99.90
3194;DHT22;1608;50.860;13.466;2022-12-07T02:37:33;5.00;99.90
3194;DHT22;1608;50.860;13.466;2022-12-07T02:40:08;4.90;99.90
3194;DHT22;1608;50.860;13.466;2022-12-07T02:42:39;4.90;99.90
3194;DHT22;1608;50.860;13.466;2022-12-07T02:45:08;5.00;99.90
3194;DHT22;1608;50.860;13.466;2022-12-07T02:47:39;5.00;99.90
3194;DHT22;1608;50.860;13.466;2022-12-07T02:50:08;5.00;99.90
3194;DHT22;1608;50.860;13.466;2022-12-07T02:52:34;5.00;99.90
3194;DHT22;1608;50.860;13.466;2022-12-07T02:55:02;5.00;99.90
3194;DHT22;1608;50.860;13.466;2022-12-07T02:57:46;5.00;99.90
3194;DHT22;1608;50.860;13.466;2022-12-07T03:00:18;5.00;99.90
3194;DHT22;1608;50.860;13.466;2022-12-07T03:02:55;5.00;99.90
3194;DHT22;1608;50.860;13.466;2022-12-07T03:05:46;5.00;99.90
3194;DHT22;1608;50.860;13.466;2022-12-07T03:08:23;4.90;99.90
3194;DHT22;1608;50.860;13.466;2022-12-07T03:10:57;4.90;99.90
3194;DHT22;1608;50.860;13.466;2022-12-07T03:13:29;4.90;99.90
3194;DHT22;1608;50.860;13.466;2022-12-07T03:16:02;4.90;99.90
3194;DHT22;1608;50.860;13.466;2022-12-07T03:18:36;4.90;99.90
3194;DHT22;1608;50.860;13.466;2022-12-07T03:21:08;4.80;99.90
3194;DHT22;1608;50.860;13.466;2022-12-07T03:23:37;4.90;99.90
3194;DHT22;1608;50.860;13.466;2022-12-07T03:26:08;4.80;99.90
3194;DHT22;1608;50.860;13.466;2022-12-07T03:28:39;4.60;99.90
3194;DHT22;1608;50.860;13.466;2022-12-07T03:31:14;4.50;99.90
3194;DHT22;1608;50.860;13.466;2022-12-07T03:33:48;4.40;99.90
3194;DHT22;1608;50.860;13.466;2022-12-07T03:36:21;4.30;99.90
3194;DHT22;1608;50.860;13.466;2022-12-07T03:38:54;4.20;99.90
3194;DHT22;1608;50.860;13.466;2022-12-07T03:41:26;4.10;99.90
3194;DHT22;1608;50.860;13.466;2022-12-07T03:43:54;4.10;99.90
3194;DHT22;1608;50.860;13.466;2022-12-07T03:46:31;4.00;99.90
3194;DHT22;1608;50.860;13.466;2022-12-07T03:49:06;4.00;99.90
3194;DHT22;1608;50.860;13.466;2022-12-07T03:51:39;3.90;99.90
3194;DHT22;1608;50.860;13.466;2022-12-07T03:54:11;4.00;99.90
3194;DHT22;1608;50.860;13.466;2022-12-07T03:56:40;4.00;99.90
3194;DHT22;1608;50.860;13.466;2022-12-07T03:59:09;4.00;99.90
3194;DHT22;1608;50.860;13.466;2022-12-07T04:01:37;4.20;99.90
3194;DHT22;1608;50.860;13.466;2022-12-07T04:04:05;4.20;99.90
3194;DHT22;1608;50.860;13.466;2022-12-07T04:06:32;4.30;99.90
3194;DHT22;1608;50.860;13.466;2022-12-07T04:08:59;4.30;99.90
3194;DHT22;1608;50.860;13.466;2022-12-07T04:11:25;4.40;99.90
3194;DHT22;1608;50.860;13.466;2022-12-07T04:13:52;4.40;99.90
3194;DHT22;1608;50.860;13.466;2022-12-07T04:16:37;4.40;99.90
3194;DHT22;1608;50.860;13.466;2022-12-07T04:19:05;4.30;99.90
3194;DHT22;1608;50.860;13.466;2022-12-07T04:21:31;4.30;99.90
3194;DHT22;1608;50.860;13.466;2022-12-07T04:23:58;4.20;99.90
3194;DHT22;1608;50.860;13.466;2022-12-07T04:26:25;4.10;99.90
3194;DHT22;1608;50.860;13.466;2022-12-07T04:28:52;4.00;99.90
3194;DHT22;1608;50.860;13.466;2022-12-07T04:31:18;3.90;99.90
3194;DHT22;1608;50.860;13.466;2022-12-07T04:33:45;3.80;99.90
3194;DHT22;1608;50.860;13.466;2022-12-07T04:36:14;3.70;99.90
3194;DHT22;1608;50.860;13.466;2022-12-07T04:38:40;3.60;99.90
3194;DHT22;1608;50.860;13.466;2022-12-07T04:41:08;3.50;99.90
3194;DHT22;1608;50.860;13.466;2022-12-07T04:43:35;3.50;99.90
3194;DHT22;1608;50.860;13.466;2022-12-07T04:46:02;3.50;99.90
3194;DHT22;1608;50.860;13.466;2022-12-07T04:48:29;3.50;99.90
3194;DHT22;1608;50.860;13.466;2022-12-07T04:50:56;3.40;99.90
3194;DHT22;1608;50.860;13.466;2022-12-07T04:53:24;3.40;99.90
3194;DHT22;1608;50.860;13.466;2022-12-07T04:55:51;3.40;99.90
3194;DHT22;1608;50.860;13.466;2022-12-07T04:58:18;3.40;99.90
3194;DHT22;1608;50.860;13.466;2022-12-07T05:00:45;3.50;99.90
3194;DHT22;1608;50.860;13.466;2022-12-07T05:03:12;3.60;99.90
3194;DHT22;1608;50.860;13.466;2022-12-07T05:05:40;3.70;99.90
3194;DHT22;1608;50.860;13.466;2022-12-07T05:08:07;3.70;99.90
3194;DHT22;1608;50.860;13.466;2022-12-07T05:10:35;3.70;99.90
3194;DHT22;1608;50.860;13.466;2022-12-07T05:13:02;3.70;99.90
3194;DHT22;1608;50.860;13.466;2022-12-07T05:15:29;3.80;99.90
3194;DHT22;1608;50.860;13.466;2022-12-07T05:17:55;3.70;99.90
3194;DHT22;1608;50.860;13.466;2022-12-07T05:20:22;3.70;99.90
3194;DHT22;1608;50.860;13.466;2022-12-07T05:22:49;3.60;99.90
3194;DHT22;1608;50.860;13.466;2022-12-07T05:25:16;3.50;99.90
3194;DHT22;1608;50.860;13.466;2022-12-07T05:27:44;3.60;99.90
3194;DHT22;1608;50.860;13.466;2022-12-07T05:30:12;3.70;99.90
3194;DHT22;1608;50.860;13.466;2022-12-07T05:32:39;3.70;99.90
3194;DHT22;1608;50.860;13.466;2022-12-07T05:35:06;3.80;99.90
3194;DHT22;1608;50.860;13.466;2022-12-07T05:37:33;4.00;99.90
3194;DHT22;1608;50.860;13.466;2022-12-07T05:40:00;4.20;99.90
3194;DHT22;1608;50.860;13.466;2022-12-07T05:42:26;4.10;99.90
3194;DHT22;1608;50.860;13.466;2022-12-07T05:44:55;4.20;99.90
3194;DHT22;1608;50.860;13.466;2022-12-07T05:47:21;4.30;99.90
3194;DHT22;1608;50.860;13.466;2022-12-07T05:49:48;4.30;99.90
3194;DHT22;1608;50.860;13.466;2022-12-07T05:52:15;4.30;99.90
3194;DHT22;1608;50.860;13.466;2022-12-07T05:54:42;4.40;99.90
3194;DHT22;1608;50.860;13.466;2022-12-07T05:57:09;4.40;99.90
3194;DHT22;1608;50.860;13.466;2022-12-07T05:59:36;4.40;99.90
3194;DHT22;1608;50.860;13.466;2022-12-07T06:02:05;4.40;99.90
3194;DHT22;1608;50.860;13.466;2022-12-07T06:04:34;4.40;99.90
3194;DHT22;1608;50.860;13.466;2022-12-07T06:07:01;4.40;99.90
3194;DHT22;1608;50.860;13.466;2022-12-07T06:09:28;4.40;99.90
3194;DHT22;1608;50.860;13.466;2022-12-07T06:11:55;4.40;99.90
3194;DHT22;1608;50.860;13.466;2022-12-07T06:14:40;4.40;99.90
3194;DHT22;1608;50.860;13.466;2022-12-07T06:17:09;4.50;99.90
3194;DHT22;1608;50.860;13.466;2022-12-07T06:19:36;4.50;99.90
3194;DHT22;1608;50.860;13.466;2022-12-07T06:22:02;4.50;99.90
3194;DHT22;1608;50.860;13.466;2022-12-07T06:24:31;4.50;99.90
3194;DHT22;1608;50.860;13.466;2022-12-07T06:26:58;4.40;99.90
3194;DHT22;1608;50.860;13.466;2022-12-07T06:29:25;4.20;99.90
3194;DHT22;1608;50.860;13.466;2022-12-07T06:31:52;4.20;99.90
3194;DHT22;1608;50.860;13.466;2022-12-07T06:34:23;4.20;99.90
3194;DHT22;1608;50.860;13.466;2022-12-07T06:36:51;4.20;99.90
3194;DHT22;1608;50.860;13.466;2022-12-07T06:39:21;4.20;99.90
3194;DHT22;1608;50.860;13.466;2022-12-07T06:41:48;4.20;99.90
3194;DHT22;1608;50.860;13.466;2022-12-07T06:44:17;4.20;99.90
3194;DHT22;1608;50.860;13.466;2022-12-07T06:46:44;4.30;99.90
3194;DHT22;1608;50.860;13.466;2022-12-07T06:49:11;4.30;99.90
3194;DHT22;1608;50.860;13.466;2022-12-07T06:51:39;4.30;99.90
3194;DHT22;1608;50.860;13.466;2022-12-07T06:54:07;4.30;99.90
3194;DHT22;1608;50.860;13.466;2022-12-07T06:56:34;4.30;99.90
3194;DHT22;1608;50.860;13.466;2022-12-07T06:59:01;4.30;99.90
3194;DHT22;1608;50.860;13.466;2022-12-07T07:01:28;4.30;99.90
3194;DHT22;1608;50.860;13.466;2022-12-07T07:03:55;4.30;99.90
3194;DHT22;1608;50.860;13.466;2022-12-07T07:06:22;4.30;99.90
3194;DHT22;1608;50.860;13.466;2022-12-07T07:08:50;4.30;99.90
3194;DHT22;1608;50.860;13.466;2022-12-07T07:11:17;4.40;99.90
3194;DHT22;1608;50.860;13.466;2022-12-07T07:13:44;4.30;99.90
3194;DHT22;1608;50.860;13.466;2022-12-07T07:16:12;4.40;99.90
3194;DHT22;1608;50.860;13.466;2022-12-07T07:18:39;4.40;99.90
3194;DHT22;1608;50.860;13.466;2022-12-07T07:21:06;4.30;99.90
3194;DHT22;1608;50.860;13.466;2022-12-07T07:23:33;4.30;99.90
3194;DHT22;1608;50.860;13.466;2022-12-07T07:26:01;4.20;99.90
3194;DHT22;1608;50.860;13.466;2022-12-07T07:28:27;4.20;99.90
3194;DHT22;1608;50.860;13.466;2022-12-07T07:30:54;4.20;99.90
3194;DHT22;1608;50.860;13.466;2022-12-07T07:33:21;4.20;99.90
3194;DHT22;1608;50.860;13.466;2022-12-07T07:35:48;4.10;99.90
3194;DHT22;1608;50.860;13.466;2022-12-07T07:38:15;4.10;99.90
3194;DHT22;1608;50.860;13.466;2022-12-07T07:40:42;4.10;99.90
3194;DHT22;1608;50.860;13.466;2022-12-07T07:43:10;4.20;99.90
3194;DHT22;1608;50.860;13.466;2022-12-07T07:45:36;4.10;99.90
3194;DHT22;1608;50.860;13.466;2022-12-07T07:48:03;4.10;99.90
3194;DHT22;1608;50.860;13.466;2022-12-07T07:50:30;4.10;99.90
3194;DHT22;1608;50.860;13.466;2022-12-07T07:52:57;4.20;99.90
3194;DHT22;1608;50.860;13.466;2022-12-07T07:55:24;4.20;99.90
3194;DHT22;1608;50.860;13.466;2022-12-07T07:57:51;4.20;99.90
3194;DHT22;1608;50.860;13.466;2022-12-07T08:00:20;4.20;99.90
3194;DHT22;1608;50.860;13.466;2022-12-07T08:02:46;4.20;99.90
3194;DHT22;1608;50.860;13.466;2022-12-07T08:05:13;4.30;99.90
3194;DHT22;1608;50.860;13.466;2022-12-07T08:07:40;4.40;99.90
3194;DHT22;1608;50.860;13.466;2022-12-07T08:10:10;4.50;99.90
3194;DHT22;1608;50.860;13.466;2022-12-07T08:12:37;4.50;99.90
3194;DHT22;1608;50.860;13.466;2022-12-07T08:15:28;4.50;99.90
3194;DHT22;1608;50.860;13.466;2022-12-07T08:17:55;4.60;99.90
3194;DHT22;1608;50.860;13.466;2022-12-07T08:20:22;4.60;99.90
3194;DHT22;1608;50.860;13.466;2022-12-07T08:22:49;4.70;99.90
3194;DHT22;1608;50.860;13.466;2022-12-07T08:25:17;4.70;99.90
3194;DHT22;1608;50.860;13.466;2022-12-07T08:27:43;4.80;99.90
3194;DHT22;1608;50.860;13.466;2022-12-07T08:30:11;4.80;99.90
3194;DHT22;1608;50.860;13.466;2022-12-07T08:32:39;4.80;99.90
3194;DHT22;1608;50.860;13.466;2022-12-07T08:35:07;4.90;99.90
3194;DHT22;1608;50.860;13.466;2022-12-07T08:37:34;4.90;99.90
3194;DHT22;1608;50.860;13.466;2022-12-07T08:40:01;5.00;99.90
3194;DHT22;1608;50.860;13.466;2022-12-07T08:42:27;5.00;99.90
3194;DHT22;1608;50.860;13.466;2022-12-07T08:44:55;5.10;99.90
3194;DHT22;1608;50.860;13.466;2022-12-07T08:47:23;5.10;99.90
3194;DHT22;1608;50.860;13.466;2022-12-07T08:49:53;5.10;99.90
3194;DHT22;1608;50.860;13.466;2022-12-07T08:52:21;5.10;99.90
3194;DHT22;1608;50.860;13.466;2022-12-07T08:54:48;5.10;99.90
3194;DHT22;1608;50.860;13.466;2022-12-07T08:57:15;5.10;99.90
3194;DHT22;1608;50.860;13.466;2022-12-07T08:59:42;5.10;99.90
3194;DHT22;1608;50.860;13.466;2022-12-07T09:02:08;5.10;99.90
3194;DHT22;1608;50.860;13.466;2022-12-07T09:04:35;5.20;99.90
3194;DHT22;1608;50.860;13.466;2022-12-07T09:07:04;5.30;99.90
3194;DHT22;1608;50.860;13.466;2022-12-07T09:09:31;5.30;99.90
3194;DHT22;1608;50.860;13.466;2022-12-07T09:11:58;5.30;99.90
3194;DHT22;1608;50.860;13.466;2022-12-07T09:14:25;5.40;99.90
3194;DHT22;1608;50.860;13.466;2022-12-07T09:16:52;5.50;99.90
3194;DHT22;1608;50.860;13.466;2022-12-07T09:19:19;5.60;99.90
3194;DHT22;1608;50.860;13.466;2022-12-07T09:21:46;5.70;99.90
3194;DHT22;1608;50.860;13.466;2022-12-07T09:24:14;6.90;99.90
3194;DHT22;1608;50.860;13.466;2022-12-07T09:26:40;5.80;99.90
3194;DHT22;1608;50.860;13.466;2022-12-07T09:29:07;5.80;99.90
3194;DHT22;1608;50.860;13.466;2022-12-07T09:31:36;5.80;99.90
3194;DHT22;1608;50.860;13.466;2022-12-07T09:34:03;5.70;99.90
3194;DHT22;1608;50.860;13.466;2022-12-07T09:36:31;5.70;99.90
3194;DHT22;1608;50.860;13.466;2022-12-07T09:38:57;5.70;99.90
3194;DHT22;1608;50.860;13.466;2022-12-07T09:41:27;5.80;99.90
3194;DHT22;1608;50.860;13.466;2022-12-07T09:44:03;5.80;99.90
3194;DHT22;1608;50.860;13.466;2022-12-07T09:46:35;5.90;99.90
3194;DHT22;1608;50.860;13.466;2022-12-07T09:49:03;5.90;99.90
3194;DHT22;1608;50.860;13.466;2022-12-07T09:51:31;5.80;99.90
3194;DHT22;1608;50.860;13.466;2022-12-07T09:53:59;5.70;99.90
3194;DHT22;1608;50.860;13.466;2022-12-07T09:56:30;5.60;99.90
3194;DHT22;1608;50.860;13.466;2022-12-07T09:58:59;5.50;99.90
3194;DHT22;1608;50.860;13.466;2022-12-07T10:01:28;5.70;99.90
3194;DHT22;1608;50.860;13.466;2022-12-07T10:04:02;5.90;99.90
3194;DHT22;1608;50.860;13.466;2022-12-07T10:06:33;6.00;99.90
3194;DHT22;1608;50.860;13.466;2022-12-07T10:09:00;6.10;99.90
3194;DHT22;1608;50.860;13.466;2022-12-07T10:11:29;6.00;99.90
3194;DHT22;1608;50.860;13.466;2022-12-07T10:14:11;6.20;99.90
3194;DHT22;1608;50.860;13.466;2022-12-07T10:16:39;6.30;99.90
3194;DHT22;1608;50.860;13.466;2022-12-07T10:19:23;6.40;99.90
3194;DHT22;1608;50.860;13.466;2022-12-07T10:22:03;6.50;99.90
3194;DHT22;1608;50.860;13.466;2022-12-07T10:24:30;6.60;99.90
3194;DHT22;1608;50.860;13.466;2022-12-07T10:26:59;6.70;99.90
3194;DHT22;1608;50.860;13.466;2022-12-07T10:29:29;6.80;99.90
3194;DHT22;1608;50.860;13.466;2022-12-07T10:31:58;6.70;99.90
3194;DHT22;1608;50.860;13.466;2022-12-07T10:34:27;6.80;99.90
3194;DHT22;1608;50.860;13.466;2022-12-07T10:37:13;6.90;99.90
3194;DHT22;1608;50.860;13.466;2022-12-07T10:39:42;7.40;99.90
3194;DHT22;1608;50.860;13.466;2022-12-07T10:42:18;6.80;99.90
3194;DHT22;1608;50.860;13.466;2022-12-07T10:44:45;6.80;99.90
3194;DHT22;1608;50.860;13.466;2022-12-07T10:47:23;6.70;99.90
3194;DHT22;1608;50.860;13.466;2022-12-07T10:53:15;6.60;99.90
3194;DHT22;1608;50.860;13.466;2022-12-07T10:55:56;6.60;99.90
3194;DHT22;1608;50.860;13.466;2022-12-07T10:58:40;6.60;99.90
3194;DHT22;1608;50.860;13.466;2022-12-07T11:01:15;6.60;99.90
3194;DHT22;1608;50.860;13.466;2022-12-07T11:04:03;6.60;99.90
3194;DHT22;1608;50.860;13.466;2022-12-07T11:06:37;6.50;99.90
3194;DHT22;1608;50.860;13.466;2022-12-07T11:09:29;6.40;99.90
3194;DHT22;1608;50.860;13.466;2022-12-07T11:12:02;6.50;99.90
3194;DHT22;1608;50.860;13.466;2022-12-07T11:14:41;6.60;99.90
3194;DHT22;1608;50.860;13.466;2022-12-07T11:17:16;6.60;99.90
3194;DHT22;1608;50.860;13.466;2022-12-07T11:19:55;6.60;99.90
3194;DHT22;1608;50.860;13.466;2022-12-07T11:22:33;6.60;99.90
3194;DHT22;1608;50.860;13.466;2022-12-07T11:25:18;6.60;99.90
3194;DHT22;1608;50.860;13.466;2022-12-07T11:27:51;6.40;99.90
3194;DHT22;1608;50.860;13.466;2022-12-07T11:30:24;6.20;99.90
3194;DHT22;1608;50.860;13.466;2022-12-07T11:33:04;6.10;99.90
3194;DHT22;1608;50.860;13.466;2022-12-07T11:35:43;6.20;99.90
3194;DHT22;1608;50.860;13.466;2022-12-07T11:38:14;6.20;99.90
3194;DHT22;1608;50.860;13.466;2022-12-07T11:40:46;6.00;99.90
3194;DHT22;1608;50.860;13.466;2022-12-07T11:43:20;6.00;99.90
3194;DHT22;1608;50.860;13.466;2022-12-07T11:45:54;6.10;99.90
3194;DHT22;1608;50.860;13.466;2022-12-07T11:48:30;6.10;99.90
3194;DHT22;1608;50.860;13.466;2022-12-07T11:51:00;6.00;99.90
3194;DHT22;1608;50.860;13.466;2022-12-07T11:53:33;6.00;99.90
3194;DHT22;1608;50.860;13.466;2022-12-07T11:56:06;6.00;99.90
3194;DHT22;1608;50.860;13.466;2022-12-07T11:58:47;6.00;99.90
3194;DHT22;1608;50.860;13.466;2022-12-07T12:01:29;5.90;99.90
3194;DHT22;1608;50.860;13.466;2022-12-07T12:04:05;5.80;99.90
3194;DHT22;1608;50.860;13.466;2022-12-07T12:06:33;5.90;99.90
3194;DHT22;1608;50.860;13.466;2022-12-07T12:09:06;5.90;99.90
3194;DHT22;1608;50.860;13.466;2022-12-07T12:11:52;5.90;99.90
3194;DHT22;1608;50.860;13.466;2022-12-07T12:14:38;5.90;99.90
3194;DHT22;1608;50.860;13.466;2022-12-07T12:17:46;6.00;99.90
3194;DHT22;1608;50.860;13.466;2022-12-07T12:20:20;6.00;99.90
3194;DHT22;1608;50.860;13.466;2022-12-07T12:22:52;5.90;99.90
3194;DHT22;1608;50.860;13.466;2022-12-07T12:25:22;6.00;99.90
3194;DHT22;1608;50.860;13.466;2022-12-07T12:27:52;6.00;99.90
3194;DHT22;1608;50.860;13.466;2022-12-07T12:30:35;6.10;99.90
3194;DHT22;1608;50.860;13.466;2022-12-07T12:33:06;6.10;99.90
3194;DHT22;1608;50.860;13.466;2022-12-07T12:35:39;6.00;99.90
3194;DHT22;1608;50.860;13.466;2022-12-07T12:38:31;6.00;99.90
3194;DHT22;1608;50.860;13.466;2022-12-07T12:40:58;6.00;99.90
3194;DHT22;1608;50.860;13.466;2022-12-07T12:43:46;5.90;99.90
3194;DHT22;1608;50.860;13.466;2022-12-07T12:46:46;5.90;99.90
3194;DHT22;1608;50.860;13.466;2022-12-07T12:49:55;5.90;99.90
3194;DHT22;1608;50.860;13.466;2022-12-07T12:52:55;5.90;99.90
3194;DHT22;1608;50.860;13.466;2022-12-07T12:55:54;6.00;99.90
3194;DHT22;1608;50.860;13.466;2022-12-07T12:58:44;5.90;99.90
3194;DHT22;1608;50.860;13.466;2022-12-07T13:04:38;5.90;99.90
3194;DHT22;1608;50.860;13.466;2022-12-07T13:07:11;5.90;99.90
3194;DHT22;1608;50.860;13.466;2022-12-07T13:09:43;5.90;99.90
3194;DHT22;1608;50.860;13.466;2022-12-07T13:12:14;5.90;99.90
3194;DHT22;1608;50.860;13.466;2022-12-07T13:14:56;5.90;99.90
3194;DHT22;1608;50.860;13.466;2022-12-07T13:20:47;6.00;99.90
3194;DHT22;1608;50.860;13.466;2022-12-07T13:23:21;6.00;99.90
3194;DHT22;1608;50.860;13.466;2022-12-07T13:25:54;6.10;99.90
3194;DHT22;1608;50.860;13.466;2022-12-07T13:28:22;6.00;99.90
3194;DHT22;1608;50.860;13.466;2022-12-07T13:31:23;5.90;99.90
3194;DHT22;1608;50.860;13.466;2022-12-07T13:33:51;5.90;99.90
3194;DHT22;1608;50.860;13.466;2022-12-07T13:36:21;6.00;99.90
3194;DHT22;1608;50.860;13.466;2022-12-07T13:38:53;5.90;99.90
3194;DHT22;1608;50.860;13.466;2022-12-07T13:41:21;6.00;99.90
3194;DHT22;1608;50.860;13.466;2022-12-07T13:43:51;6.10;99.90
3194;DHT22;1608;50.860;13.466;2022-12-07T13:46:24;6.20;99.90
3194;DHT22;1608;50.860;13.466;2022-12-07T13:48:52;6.20;99.90
3194;DHT22;1608;50.860;13.466;2022-12-07T13:51:34;6.20;99.90
3194;DHT22;1608;50.860;13.466;2022-12-07T13:54:10;6.10;99.90
3194;DHT22;1608;50.860;13.466;2022-12-07T13:56:38;6.10;99.90
3194;DHT22;1608;50.860;13.466;2022-12-07T13:59:07;6.10;99.90
3194;DHT22;1608;50.860;13.466;2022-12-07T14:01:37;6.20;99.90
3194;DHT22;1608;50.860;13.466;2022-12-07T14:04:29;6.20;99.90
3194;DHT22;1608;50.860;13.466;2022-12-07T14:06:57;6.20;99.90
3194;DHT22;1608;50.860;13.466;2022-12-07T14:09:27;6.30;99.90
3194;DHT22;1608;50.860;13.466;2022-12-07T14:11:55;6.20;99.90
3194;DHT22;1608;50.860;13.466;2022-12-07T14:14:24;6.20;99.90
3194;DHT22;1608;50.860;13.466;2022-12-07T14:17:00;6.10;99.90
3194;DHT22;1608;50.860;13.466;2022-12-07T14:19:48;6.10;99.90
3194;DHT22;1608;50.860;13.466;2022-12-07T14:22:24;6.00;99.90
3194;DHT22;1608;50.860;13.466;2022-12-07T14:24:58;6.00;99.90
3194;DHT22;1608;50.860;13.466;2022-12-07T14:27:31;6.00;99.90
3194;DHT22;1608;50.860;13.466;2022-12-07T14:29:59;5.30;99.90
3194;DHT22;1608;50.860;13.466;2022-12-07T14:32:27;5.90;99.90
3194;DHT22;1608;50.860;13.466;2022-12-07T14:34:59;6.00;99.90
3194;DHT22;1608;50.860;13.466;2022-12-07T14:37:28;6.00;99.90
3194;DHT22;1608;50.860;13.466;2022-12-07T14:39:57;6.00;99.90
3194;DHT22;1608;50.860;13.466;2022-12-07T14:42:27;6.00;99.90
3194;DHT22;1608;50.860;13.466;2022-12-07T14:44:54;6.00;99.90
3194;DHT22;1608;50.860;13.466;2022-12-07T14:47:21;6.00;99.90
3194;DHT22;1608;50.860;13.466;2022-12-07T14:49:47;6.00;99.90
3194;DHT22;1608;50.860;13.466;2022-12-07T14:52:17;6.00;99.90
3194;DHT22;1608;50.860;13.466;2022-12-07T14:54:45;6.10;99.90
3194;DHT22;1608;50.860;13.466;2022-12-07T14:57:13;6.10;99.90
3194;DHT22;1608;50.860;13.466;2022-12-07T14:59:40;6.10;99.90
3194;DHT22;1608;50.860;13.466;2022-12-07T15:02:09;6.10;99.90
3194;DHT22;1608;50.860;13.466;2022-12-07T15:04:37;6.00;99.90
3194;DHT22;1608;50.860;13.466;2022-12-07T15:07:05;6.00;99.90
3194;DHT22;1608;50.860;13.466;2022-12-07T15:09:32;6.00;99.90
3194;DHT22;1608;50.860;13.466;2022-12-07T15:11:59;5.90;99.90
3194;DHT22;1608;50.860;13.466;2022-12-07T15:14:27;5.90;99.90
3194;DHT22;1608;50.860;13.466;2022-12-07T15:16:53;6.00;99.90
3194;DHT22;1608;50.860;13.466;2022-12-07T15:19:22;6.00;99.90
3194;DHT22;1608;50.860;13.466;2022-12-07T15:21:51;6.00;99.90
3194;DHT22;1608;50.860;13.466;2022-12-07T15:24:18;6.00;99.90
3194;DHT22;1608;50.860;13.466;2022-12-07T15:26:45;5.80;99.90
3194;DHT22;1608;50.860;13.466;2022-12-07T15:29:12;5.70;99.90
3194;DHT22;1608;50.860;13.466;2022-12-07T15:31:41;5.70;99.90
3194;DHT22;1608;50.860;13.466;2022-12-07T15:34:08;5.70;99.90
3194;DHT22;1608;50.860;13.466;2022-12-07T15:36:35;5.80;99.90
3194;DHT22;1608;50.860;13.466;2022-12-07T15:39:02;5.70;99.90
3194;DHT22;1608;50.860;13.466;2022-12-07T15:41:29;5.80;99.90
3194;DHT22;1608;50.860;13.466;2022-12-07T15:43:56;5.80;99.90
3194;DHT22;1608;50.860;13.466;2022-12-07T15:46:42;5.80;99.90
3194;DHT22;1608;50.860;13.466;2022-12-07T15:49:12;5.90;99.90
3194;DHT22;1608;50.860;13.466;2022-12-07T15:51:39;5.90;99.90
3194;DHT22;1608;50.860;13.466;2022-12-07T15:54:06;5.90;99.90
3194;DHT22;1608;50.860;13.466;2022-12-07T15:56:33;5.90;99.90
3194;DHT22;1608;50.860;13.466;2022-12-07T15:59:00;5.90;99.90
3194;DHT22;1608;50.860;13.466;2022-12-07T16:01:26;5.80;99.90
3194;DHT22;1608;50.860;13.466;2022-12-07T16:03:56;5.70;99.90
3194;DHT22;1608;50.860;13.466;2022-12-07T16:06:24;5.60;99.90
3194;DHT22;1608;50.860;13.466;2022-12-07T16:08:51;5.60;99.90
3194;DHT22;1608;50.860;13.466;2022-12-07T16:11:18;5.90;99.90
3194;DHT22;1608;50.860;13.466;2022-12-07T16:13:45;5.90;99.90
3194;DHT22;1608;50.860;13.466;2022-12-07T16:16:14;6.20;99.90
3194;DHT22;1608;50.860;13.466;2022-12-07T16:18:42;6.30;99.90
3194;DHT22;1608;50.860;13.466;2022-12-07T16:21:11;6.40;99.90
3194;DHT22;1608;50.860;13.466;2022-12-07T16:23:38;6.40;99.90
3194;DHT22;1608;50.860;13.466;2022-12-07T16:26:06;6.30;99.90
3194;DHT22;1608;50.860;13.466;2022-12-07T16:28:33;6.20;99.90
3194;DHT22;1608;50.860;13.466;2022-12-07T16:31:02;6.10;99.90
3194;DHT22;1608;50.860;13.466;2022-12-07T16:33:29;5.90;99.90
3194;DHT22;1608;50.860;13.466;2022-12-07T16:35:56;5.70;99.90